Agate Beach, OR

12:15 AM PDT on October 22, 2014 (GMT -0700)
K7BAW-Agate Beach | Change Station
CLOSE
Current Station
Personal Weather Station
Location: Newport, OR
Elevation: 75 ft
Nearby Weather Stations

Elev 75 ft 44.66 °N, 124.05 °W | Updated 54 seconds ago

Rain
Rain
58.0 °F
Feels Like 58.0 °F
N
1.0
Wind Variable Wind from SE
Gusts 9.0 mph

Today
High -- | Low -- °F
--% Chance of Precip.
Yesterday
High -- | Low -- °F
Precip. -- in
7:40 AM 6:19 PM
Waning Crescent, 3% visible
Pressure 29.83 in
Visibility 10.0 miles
Clouds Scattered Clouds 800 ft
Mostly Cloudy 1100 ft
Mostly Cloudy 2200 ft
Dew Point 55 °F
Humidity 90%
Rainfall 0.00 in
Snow Depth Not available.
UV 0 out of 12
Pollen .60 out of 12
Air Quality Not available.
Flu Activity Sporadic
METAR KONP 220655Z AUTO 17014G24KT 10SM -RA SCT008 BKN011 BKN022 13/12 A2983 RMK AO2

More Conditions Fewer Conditions

Pressure 29.83 in
Visibility 10.0 miles
Clouds Scattered Clouds 800 ft
Mostly Cloudy 1100 ft
Mostly Cloudy 2200 ft
Dew Point 55 °F
Humidity 90%
Rainfall 0.00 in
Snow Depth Not available.
UV 0 out of 12
Pollen .60 out of 12
Air Quality Not available.
Flu Activity Sporadic
METAR KONP 220655Z AUTO 17014G24KT 10SM -RA SCT008 BKN011 BKN022 13/12 A2983 RMK AO2

More Conditions Fewer Conditions

10-Day Weather Forecast

Almanac

Astronomy

Oct. 22, 2014 Rise Set
Actual Time 7:40 AM PDT 6:19 PM PDT
Civil Twilight 7:10 AM PDT 6:49 PM PDT
Nautical Twilight 6:36 AM PDT 7:23 PM PDT
Astronomical Twilight 6:02 AM PDT 7:57 PM PDT
Moon 6:24 AM PDT 5:51 PM PDT
Length of Visible Light 11h 38m
Length of Day
10h 39m
Tomorrow will be 2m 55s shorter.
Waning Crescent, 3% of the Moon is Illuminated
Today
Waning Crescent
Oct 23
New
Oct 30
First Quarter
Nov 6
Full
Nov 14
Last Quarter

Today's Extremes

State Highs State Lows

Community

WunderPhotos

Upload Photos

1,763,890 photos uploaded!

Nearby

Snow Depth

Station Depth Elevation
Seine Creek 0 in 2000 ft
Jump Off Joe 0 in 3500 ft
Daly Lake 0 in 3600 ft
Holland Meadows 0 in 4900 ft
Marion Forks 0 in 2600 ft

Earthquake Activity

City Distance Mag. Time & Date
No recent earthquake activity has been reported nearby.
Minimum magnitude displayed is 2.5.

Coastal Water Temperatures

Place Temperature
South Beach, OR 60.1 °F
Charleston, OR 57.9 °F

Nearby Weather Stations